Terminal Aerodrome Forecast
Issued by NWS

Home | Current Version | Previous Version | Text Only | Print | Product List | Glossary On
Versions: 1 2 3 4 5 6 7 8 9 10 11 12 13 14
787
FTPA31 PHFO 050545
TAFHKO
TAF
PHKO 050545Z 0506/0606 15005KT P6SM BKN060
     FM051000 VRB03KT P6SM BKN060
     FM051400 VRB03KT P6SM SCT060
     FM052100 29005KT P6SM SCT060
     FM060200 24005KT P6SM BKN060=

USA.gov is the U.S. government's official web portal to all federal, state and local government web resources and services.